sensor_id;sensor_type;location;lat;lon;timestamp;P1;durP1;ratioP1;P2;durP2;ratioP2
7957;SDS011;4024;52.172;5.378;2023-02-28T00:00:19;6.83;;;3.97;;
7957;SDS011;4024;52.172;5.378;2023-02-28T00:02:46;8.27;;;4.17;;
7957;SDS011;4024;52.172;5.378;2023-02-28T00:05:13;8.43;;;4.10;;
7957;SDS011;4024;52.172;5.378;2023-02-28T00:07:41;7.77;;;4.47;;
7957;SDS011;4024;52.172;5.378;2023-02-28T00:10:08;5.80;;;3.97;;
7957;SDS011;4024;52.172;5.378;2023-02-28T00:12:35;5.40;;;3.80;;
7957;SDS011;4024;52.172;5.378;2023-02-28T00:15:02;7.53;;;3.83;;
7957;SDS011;4024;52.172;5.378;2023-02-28T00:17:32;10.47;;;3.83;;
7957;SDS011;4024;52.172;5.378;2023-02-28T00:19:57;5.23;;;3.60;;
7957;SDS011;4024;52.172;5.378;2023-02-28T00:22:37;7.83;;;4.63;;
7957;SDS011;4024;52.172;5.378;2023-02-28T00:25:04;7.03;;;3.73;;
7957;SDS011;4024;52.172;5.378;2023-02-28T00:27:31;7.63;;;4.27;;
7957;SDS011;4024;52.172;5.378;2023-02-28T00:29:57;6.27;;;3.47;;
7957;SDS011;4024;52.172;5.378;2023-02-28T00:32:23;8.87;;;3.63;;
7957;SDS011;4024;52.172;5.378;2023-02-28T00:34:49;7.53;;;4.07;;
7957;SDS011;4024;52.172;5.378;2023-02-28T00:37:14;5.83;;;3.60;;
7957;SDS011;4024;52.172;5.378;2023-02-28T00:39:40;7.37;;;4.00;;
7957;SDS011;4024;52.172;5.378;2023-02-28T00:42:06;5.67;;;3.67;;
7957;SDS011;4024;52.172;5.378;2023-02-28T00:44:32;5.83;;;3.60;;
7957;SDS011;4024;52.172;5.378;2023-02-28T00:46:58;4.50;;;3.67;;
7957;SDS011;4024;52.172;5.378;2023-02-28T00:49:25;6.00;;;3.77;;
7957;SDS011;4024;52.172;5.378;2023-02-28T00:51:52;7.67;;;3.80;;
7957;SDS011;4024;52.172;5.378;2023-02-28T00:54:18;5.63;;;3.93;;
7957;SDS011;4024;52.172;5.378;2023-02-28T00:56:44;6.93;;;3.80;;
7957;SDS011;4024;52.172;5.378;2023-02-28T00:59:11;7.53;;;4.50;;
7957;SDS011;4024;52.172;5.378;2023-02-28T01:01:40;7.37;;;3.80;;
7957;SDS011;4024;52.172;5.378;2023-02-28T01:04:06;5.97;;;3.93;;
7957;SDS011;4024;52.172;5.378;2023-02-28T01:06:32;7.40;;;4.03;;
7957;SDS011;4024;52.172;5.378;2023-02-28T01:08:58;5.57;;;3.70;;
7957;SDS011;4024;52.172;5.378;2023-02-28T01:11:24;5.57;;;4.10;;
7957;SDS011;4024;52.172;5.378;2023-02-28T01:13:50;5.77;;;3.80;;
7957;SDS011;4024;52.172;5.378;2023-02-28T01:16:16;4.73;;;3.43;;
7957;SDS011;4024;52.172;5.378;2023-02-28T01:18:42;5.83;;;3.97;;
7957;SDS011;4024;52.172;5.378;2023-02-28T01:21:09;11.37;;;4.40;;
7957;SDS011;4024;52.172;5.378;2023-02-28T01:23:37;5.90;;;3.73;;
7957;SDS011;4024;52.172;5.378;2023-02-28T01:26:05;9.87;;;4.20;;
7957;SDS011;4024;52.172;5.378;2023-02-28T01:28:49;6.57;;;3.90;;
7957;SDS011;4024;52.172;5.378;2023-02-28T01:31:16;6.47;;;4.43;;
7957;SDS011;4024;52.172;5.378;2023-02-28T01:33:43;9.33;;;3.57;;
7957;SDS011;4024;52.172;5.378;2023-02-28T01:36:13;5.43;;;3.70;;
7957;SDS011;4024;52.172;5.378;2023-02-28T01:38:40;6.37;;;3.97;;
7957;SDS011;4024;52.172;5.378;2023-02-28T01:41:07;6.90;;;3.90;;
7957;SDS011;4024;52.172;5.378;2023-02-28T01:46:08;8.60;;;4.33;;
7957;SDS011;4024;52.172;5.378;2023-02-28T01:48:35;7.53;;;4.07;;
7957;SDS011;4024;52.172;5.378;2023-02-28T01:51:05;6.20;;;4.07;;
7957;SDS011;4024;52.172;5.378;2023-02-28T01:53:39;6.53;;;4.20;;
7957;SDS011;4024;52.172;5.378;2023-02-28T01:56:32;7.73;;;4.03;;
7957;SDS011;4024;52.172;5.378;2023-02-28T01:59:01;7.30;;;4.03;;
7957;SDS011;4024;52.172;5.378;2023-02-28T02:01:27;7.57;;;4.20;;
7957;SDS011;4024;52.172;5.378;2023-02-28T02:03:54;9.93;;;4.07;;
7957;SDS011;4024;52.172;5.378;2023-02-28T02:09:26;5.70;;;4.20;;
7957;SDS011;4024;52.172;5.378;2023-02-28T02:11:59;6.87;;;4.07;;
7957;SDS011;4024;52.172;5.378;2023-02-28T02:23:07;7.73;;;4.17;;
7957;SDS011;4024;52.172;5.378;2023-02-28T02:25:58;8.93;;;4.17;;
7957;SDS011;4024;52.172;5.378;2023-02-28T02:37:06;7.97;;;3.60;;
7957;SDS011;4024;52.172;5.378;2023-02-28T02:39:52;7.33;;;4.07;;
7957;SDS011;4024;52.172;5.378;2023-02-28T02:48:08;5.70;;;3.60;;
7957;SDS011;4024;52.172;5.378;2023-02-28T02:50:38;6.20;;;3.73;;
7957;SDS011;4024;52.172;5.378;2023-02-28T02:53:08;7.17;;;3.70;;
7957;SDS011;4024;52.172;5.378;2023-02-28T02:55:38;4.80;;;3.20;;
7957;SDS011;4024;52.172;5.378;2023-02-28T02:58:14;6.87;;;3.80;;
7957;SDS011;4024;52.172;5.378;2023-02-28T03:00:44;5.47;;;3.60;;
7957;SDS011;4024;52.172;5.378;2023-02-28T03:03:14;5.60;;;3.43;;
7957;SDS011;4024;52.172;5.378;2023-02-28T03:05:49;6.33;;;3.53;;
7957;SDS011;4024;52.172;5.378;2023-02-28T03:08:16;4.57;;;3.30;;
7957;SDS011;4024;52.172;5.378;2023-02-28T03:10:45;5.10;;;3.13;;
7957;SDS011;4024;52.172;5.378;2023-02-28T03:34:00;7.80;;;4.07;;
7957;SDS011;4024;52.172;5.378;2023-02-28T03:36:37;6.20;;;3.73;;
7957;SDS011;4024;52.172;5.378;2023-02-28T03:39:09;6.73;;;4.07;;
7957;SDS011;4024;52.172;5.378;2023-02-28T03:41:58;6.10;;;4.03;;
7957;SDS011;4024;52.172;5.378;2023-02-28T03:44:32;5.07;;;3.67;;
7957;SDS011;4024;52.172;5.378;2023-02-28T03:47:14;4.80;;;3.77;;
7957;SDS011;4024;52.172;5.378;2023-02-28T03:49:47;7.07;;;3.90;;
7957;SDS011;4024;52.172;5.378;2023-02-28T03:52:17;4.60;;;3.90;;
7957;SDS011;4024;52.172;5.378;2023-02-28T03:54:48;5.83;;;4.13;;
7957;SDS011;4024;52.172;5.378;2023-02-28T03:57:27;7.23;;;4.80;;
7957;SDS011;4024;52.172;5.378;2023-02-28T04:00:07;6.73;;;4.17;;
7957;SDS011;4024;52.172;5.378;2023-02-28T04:02:39;6.03;;;4.30;;
7957;SDS011;4024;52.172;5.378;2023-02-28T04:05:05;7.80;;;4.47;;
7957;SDS011;4024;52.172;5.378;2023-02-28T04:07:31;10.00;;;4.47;;
7957;SDS011;4024;52.172;5.378;2023-02-28T04:09:57;7.60;;;4.60;;
7957;SDS011;4024;52.172;5.378;2023-02-28T04:12:24;5.43;;;4.37;;
7957;SDS011;4024;52.172;5.378;2023-02-28T04:14:49;5.67;;;4.60;;
7957;SDS011;4024;52.172;5.378;2023-02-28T04:17:15;7.53;;;4.13;;
7957;SDS011;4024;52.172;5.378;2023-02-28T04:19:41;6.17;;;3.97;;
7957;SDS011;4024;52.172;5.378;2023-02-28T04:22:08;4.30;;;3.90;;
7957;SDS011;4024;52.172;5.378;2023-02-28T04:24:34;5.80;;;4.10;;
7957;SDS011;4024;52.172;5.378;2023-02-28T04:26:59;6.60;;;4.27;;
7957;SDS011;4024;52.172;5.378;2023-02-28T04:29:27;7.63;;;4.63;;
7957;SDS011;4024;52.172;5.378;2023-02-28T04:31:59;10.07;;;4.80;;
7957;SDS011;4024;52.172;5.378;2023-02-28T04:34:26;5.17;;;4.30;;
7957;SDS011;4024;52.172;5.378;2023-02-28T04:36:53;6.60;;;4.50;;
7957;SDS011;4024;52.172;5.378;2023-02-28T04:39:20;4.40;;;3.97;;
7957;SDS011;4024;52.172;5.378;2023-02-28T04:41:47;6.77;;;4.03;;
7957;SDS011;4024;52.172;5.378;2023-02-28T04:44:13;6.47;;;3.47;;
7957;SDS011;4024;52.172;5.378;2023-02-28T04:46:39;5.73;;;3.70;;
7957;SDS011;4024;52.172;5.378;2023-02-28T04:49:06;3.20;;;2.90;;
7957;SDS011;4024;52.172;5.378;2023-02-28T04:51:32;4.40;;;3.30;;
7957;SDS011;4024;52.172;5.378;2023-02-28T04:53:58;4.57;;;3.10;;
7957;SDS011;4024;52.172;5.378;2023-02-28T04:56:24;3.47;;;2.97;;
7957;SDS011;4024;52.172;5.378;2023-02-28T04:58:49;5.30;;;3.47;;
7957;SDS011;4024;52.172;5.378;2023-02-28T05:01:21;3.83;;;3.23;;
7957;SDS011;4024;52.172;5.378;2023-02-28T05:03:50;3.30;;;3.00;;
7957;SDS011;4024;52.172;5.378;2023-02-28T05:06:17;3.70;;;3.20;;
7957;SDS011;4024;52.172;5.378;2023-02-28T05:08:43;4.03;;;3.13;;
7957;SDS011;4024;52.172;5.378;2023-02-28T05:11:13;6.13;;;3.00;;
7957;SDS011;4024;52.172;5.378;2023-02-28T05:13:42;4.33;;;3.13;;
7957;SDS011;4024;52.172;5.378;2023-02-28T05:16:08;4.73;;;3.30;;
7957;SDS011;4024;52.172;5.378;2023-02-28T05:18:34;4.63;;;3.40;;
7957;SDS011;4024;52.172;5.378;2023-02-28T05:20:59;3.83;;;3.27;;
7957;SDS011;4024;52.172;5.378;2023-02-28T05:23:28;4.50;;;3.30;;
7957;SDS011;4024;52.172;5.378;2023-02-28T05:25:53;6.27;;;3.40;;
7957;SDS011;4024;52.172;5.378;2023-02-28T05:28:19;4.73;;;3.37;;
7957;SDS011;4024;52.172;5.378;2023-02-28T05:30:45;4.40;;;3.17;;
7957;SDS011;4024;52.172;5.378;2023-02-28T05:33:12;4.93;;;3.60;;
7957;SDS011;4024;52.172;5.378;2023-02-28T05:35:39;5.57;;;3.03;;
7957;SDS011;4024;52.172;5.378;2023-02-28T05:38:05;4.40;;;3.83;;
7957;SDS011;4024;52.172;5.378;2023-02-28T05:40:31;4.00;;;3.43;;
7957;SDS011;4024;52.172;5.378;2023-02-28T05:42:56;4.70;;;2.97;;
7957;SDS011;4024;52.172;5.378;2023-02-28T05:45:22;3.90;;;3.37;;
7957;SDS011;4024;52.172;5.378;2023-02-28T05:47:47;3.87;;;3.47;;
7957;SDS011;4024;52.172;5.378;2023-02-28T05:50:13;5.87;;;3.50;;
7957;SDS011;4024;52.172;5.378;2023-02-28T05:52:38;4.87;;;3.50;;
7957;SDS011;4024;52.172;5.378;2023-02-28T05:55:04;3.90;;;3.50;;
7957;SDS011;4024;52.172;5.378;2023-02-28T05:57:30;3.70;;;3.40;;
7957;SDS011;4024;52.172;5.378;2023-02-28T05:59:56;4.53;;;3.77;;
7957;SDS011;4024;52.172;5.378;2023-02-28T06:02:21;6.10;;;3.77;;
7957;SDS011;4024;52.172;5.378;2023-02-28T06:04:47;5.57;;;3.80;;
7957;SDS011;4024;52.172;5.378;2023-02-28T06:07:12;5.27;;;3.70;;
7957;SDS011;4024;52.172;5.378;2023-02-28T06:09:38;4.73;;;3.80;;
7957;SDS011;4024;52.172;5.378;2023-02-28T06:12:04;6.20;;;3.80;;
7957;SDS011;4024;52.172;5.378;2023-02-28T06:14:32;6.40;;;3.77;;
7957;SDS011;4024;52.172;5.378;2023-02-28T06:16:59;6.20;;;4.20;;
7957;SDS011;4024;52.172;5.378;2023-02-28T06:19:25;4.20;;;3.53;;
7957;SDS011;4024;52.172;5.378;2023-02-28T06:21:52;6.23;;;4.40;;
7957;SDS011;4024;52.172;5.378;2023-02-28T06:24:19;4.60;;;3.63;;
7957;SDS011;4024;52.172;5.378;2023-02-28T06:26:45;4.73;;;4.20;;
7957;SDS011;4024;52.172;5.378;2023-02-28T06:29:11;4.63;;;4.07;;
7957;SDS011;4024;52.172;5.378;2023-02-28T06:31:36;4.67;;;4.17;;
7957;SDS011;4024;52.172;5.378;2023-02-28T06:34:03;5.30;;;4.07;;
7957;SDS011;4024;52.172;5.378;2023-02-28T06:36:29;5.17;;;3.93;;
7957;SDS011;4024;52.172;5.378;2023-02-28T06:38:55;4.63;;;4.20;;
7957;SDS011;4024;52.172;5.378;2023-02-28T06:41:24;4.63;;;3.93;;
7957;SDS011;4024;52.172;5.378;2023-02-28T06:43:50;4.43;;;3.97;;
7957;SDS011;4024;52.172;5.378;2023-02-28T06:46:16;6.03;;;4.20;;
7957;SDS011;4024;52.172;5.378;2023-02-28T06:48:43;5.00;;;4.10;;
7957;SDS011;4024;52.172;5.378;2023-02-28T06:51:10;7.50;;;4.23;;
7957;SDS011;4024;52.172;5.378;2023-02-28T06:53:41;6.10;;;4.27;;
7957;SDS011;4024;52.172;5.378;2023-02-28T06:56:08;6.47;;;4.60;;
7957;SDS011;4024;52.172;5.378;2023-02-28T06:58:36;7.20;;;4.90;;
7957;SDS011;4024;52.172;5.378;2023-02-28T07:01:02;6.53;;;5.10;;
7957;SDS011;4024;52.172;5.378;2023-02-28T07:03:28;5.47;;;4.63;;
7957;SDS011;4024;52.172;5.378;2023-02-28T07:05:54;5.83;;;4.63;;
7957;SDS011;4024;52.172;5.378;2023-02-28T07:08:21;5.83;;;5.07;;
7957;SDS011;4024;52.172;5.378;2023-02-28T07:10:51;5.20;;;4.17;;
7957;SDS011;4024;52.172;5.378;2023-02-28T07:13:17;5.40;;;4.30;;
7957;SDS011;4024;52.172;5.378;2023-02-28T07:15:42;5.83;;;4.27;;
7957;SDS011;4024;52.172;5.378;2023-02-28T07:18:08;6.00;;;4.43;;
7957;SDS011;4024;52.172;5.378;2023-02-28T07:20:34;7.37;;;4.53;;
7957;SDS011;4024;52.172;5.378;2023-02-28T07:23:00;5.73;;;4.40;;
7957;SDS011;4024;52.172;5.378;2023-02-28T07:25:26;6.40;;;4.40;;
7957;SDS011;4024;52.172;5.378;2023-02-28T07:27:53;5.00;;;4.40;;
7957;SDS011;4024;52.172;5.378;2023-02-28T07:30:20;5.10;;;4.60;;
7957;SDS011;4024;52.172;5.378;2023-02-28T07:32:45;5.87;;;4.73;;
7957;SDS011;4024;52.172;5.378;2023-02-28T07:35:11;5.17;;;4.70;;
7957;SDS011;4024;52.172;5.378;2023-02-28T07:37:38;7.13;;;4.50;;
7957;SDS011;4024;52.172;5.378;2023-02-28T07:40:04;4.90;;;4.37;;
7957;SDS011;4024;52.172;5.378;2023-02-28T07:42:33;5.37;;;4.40;;
7957;SDS011;4024;52.172;5.378;2023-02-28T07:44:59;4.50;;;4.10;;
7957;SDS011;4024;52.172;5.378;2023-02-28T07:47:25;4.53;;;4.13;;
7957;SDS011;4024;52.172;5.378;2023-02-28T07:49:50;7.37;;;4.20;;
7957;SDS011;4024;52.172;5.378;2023-02-28T07:52:16;6.27;;;4.27;;
7957;SDS011;4024;52.172;5.378;2023-02-28T07:54:41;7.50;;;5.00;;
7957;SDS011;4024;52.172;5.378;2023-02-28T07:57:07;5.73;;;5.13;;
7957;SDS011;4024;52.172;5.378;2023-02-28T07:59:33;7.50;;;4.93;;
7957;SDS011;4024;52.172;5.378;2023-02-28T08:01:58;6.30;;;5.23;;
7957;SDS011;4024;52.172;5.378;2023-02-28T08:04:24;5.67;;;5.07;;
7957;SDS011;4024;52.172;5.378;2023-02-28T08:06:50;6.03;;;4.70;;
7957;SDS011;4024;52.172;5.378;2023-02-28T08:09:21;9.20;;;5.40;;
7957;SDS011;4024;52.172;5.378;2023-02-28T08:11:47;5.73;;;4.67;;
7957;SDS011;4024;52.172;5.378;2023-02-28T08:14:12;7.77;;;5.00;;
7957;SDS011;4024;52.172;5.378;2023-02-28T08:16:38;6.70;;;4.80;;
7957;SDS011;4024;52.172;5.378;2023-02-28T08:19:04;8.23;;;4.60;;
7957;SDS011;4024;52.172;5.378;2023-02-28T08:21:29;4.63;;;4.23;;
7957;SDS011;4024;52.172;5.378;2023-02-28T08:23:55;6.50;;;4.60;;
7957;SDS011;4024;52.172;5.378;2023-02-28T08:26:21;7.50;;;4.80;;
7957;SDS011;4024;52.172;5.378;2023-02-28T08:28:48;9.07;;;5.20;;
7957;SDS011;4024;52.172;5.378;2023-02-28T08:31:14;7.90;;;4.77;;
7957;SDS011;4024;52.172;5.378;2023-02-28T08:33:41;5.73;;;4.63;;
7957;SDS011;4024;52.172;5.378;2023-02-28T08:36:09;7.73;;;4.50;;
7957;SDS011;4024;52.172;5.378;2023-02-28T08:38:35;6.23;;;4.07;;
7957;SDS011;4024;52.172;5.378;2023-02-28T08:41:03;5.80;;;4.57;;
7957;SDS011;4024;52.172;5.378;2023-02-28T08:43:32;6.53;;;5.00;;
7957;SDS011;4024;52.172;5.378;2023-02-28T08:45:58;6.40;;;4.37;;
7957;SDS011;4024;52.172;5.378;2023-02-28T08:48:25;5.67;;;4.63;;
7957;SDS011;4024;52.172;5.378;2023-02-28T08:51:11;6.73;;;4.33;;
7957;SDS011;4024;52.172;5.378;2023-02-28T08:53:39;5.00;;;4.03;;
7957;SDS011;4024;52.172;5.378;2023-02-28T08:56:06;5.97;;;4.40;;
7957;SDS011;4024;52.172;5.378;2023-02-28T08:58:39;6.10;;;4.70;;
7957;SDS011;4024;52.172;5.378;2023-02-28T09:03:40;4.97;;;4.17;;
7957;SDS011;4024;52.172;5.378;2023-02-28T09:06:10;4.63;;;4.23;;
7957;SDS011;4024;52.172;5.378;2023-02-28T09:08:36;5.63;;;4.00;;
7957;SDS011;4024;52.172;5.378;2023-02-28T09:11:02;5.63;;;4.10;;
7957;SDS011;4024;52.172;5.378;2023-02-28T09:13:28;4.70;;;3.97;;
7957;SDS011;4024;52.172;5.378;2023-02-28T09:15:57;4.77;;;4.20;;
7957;SDS011;4024;52.172;5.378;2023-02-28T09:18:23;4.83;;;3.83;;
7957;SDS011;4024;52.172;5.378;2023-02-28T09:20:49;6.70;;;4.00;;
7957;SDS011;4024;52.172;5.378;2023-02-28T09:23:15;3.87;;;3.47;;
7957;SDS011;4024;52.172;5.378;2023-02-28T09:25:48;6.60;;;4.07;;
7957;SDS011;4024;52.172;5.378;2023-02-28T09:28:15;4.67;;;3.40;;
7957;SDS011;4024;52.172;5.378;2023-02-28T09:30:42;5.13;;;3.50;;
7957;SDS011;4024;52.172;5.378;2023-02-28T09:33:12;4.23;;;3.50;;
7957;SDS011;4024;52.172;5.378;2023-02-28T09:35:38;3.87;;;3.40;;
7957;SDS011;4024;52.172;5.378;2023-02-28T09:38:04;3.80;;;2.90;;
7957;SDS011;4024;52.172;5.378;2023-02-28T09:40:30;3.67;;;2.63;;
7957;SDS011;4024;52.172;5.378;2023-02-28T09:42:56;3.03;;;2.40;;
7957;SDS011;4024;52.172;5.378;2023-02-28T09:45:35;3.00;;;2.43;;
7957;SDS011;4024;52.172;5.378;2023-02-28T09:48:14;4.23;;;2.40;;
7957;SDS011;4024;52.172;5.378;2023-02-28T09:50:50;2.90;;;2.60;;
7957;SDS011;4024;52.172;5.378;2023-02-28T09:53:19;2.73;;;2.53;;
7957;SDS011;4024;52.172;5.378;2023-02-28T09:55:53;2.77;;;2.33;;
7957;SDS011;4024;52.172;5.378;2023-02-28T10:01:00;3.00;;;2.40;;
7957;SDS011;4024;52.172;5.378;2023-02-28T10:04:08;2.37;;;2.17;;
7957;SDS011;4024;52.172;5.378;2023-02-28T10:06:56;2.20;;;2.00;;
7957;SDS011;4024;52.172;5.378;2023-02-28T10:09:24;4.17;;;2.33;;
7957;SDS011;4024;52.172;5.378;2023-02-28T10:11:54;2.17;;;2.00;;
7957;SDS011;4024;52.172;5.378;2023-02-28T10:14:25;2.30;;;2.10;;
7957;SDS011;4024;52.172;5.378;2023-02-28T10:24:59;2.47;;;2.27;;
7957;SDS011;4024;52.172;5.378;2023-02-28T10:27:31;2.60;;;2.30;;
7957;SDS011;4024;52.172;5.378;2023-02-28T10:29:58;5.70;;;2.30;;
7957;SDS011;4024;52.172;5.378;2023-02-28T10:32:28;5.73;;;2.30;;
7957;SDS011;4024;52.172;5.378;2023-02-28T10:37:44;3.30;;;2.53;;
7957;SDS011;4024;52.172;5.378;2023-02-28T10:43:33;2.77;;;2.40;;
7957;SDS011;4024;52.172;5.378;2023-02-28T10:45:40;3.47;;;2.50;;
7957;SDS011;4024;52.172;5.378;2023-02-28T10:50:54;4.07;;;2.30;;
7957;SDS011;4024;52.172;5.378;2023-02-28T10:53:24;2.50;;;2.30;;
7957;SDS011;4024;52.172;5.378;2023-02-28T10:56:01;3.00;;;2.60;;
7957;SDS011;4024;52.172;5.378;2023-02-28T10:58:45;2.60;;;2.20;;
7957;SDS011;4024;52.172;5.378;2023-02-28T11:01:36;2.97;;;2.47;;
7957;SDS011;4024;52.172;5.378;2023-02-28T11:04:18;3.73;;;2.40;;
7957;SDS011;4024;52.172;5.378;2023-02-28T11:06:44;3.27;;;2.33;;
7957;SDS011;4024;52.172;5.378;2023-02-28T11:09:19;2.87;;;2.20;;
7957;SDS011;4024;52.172;5.378;2023-02-28T11:11:49;4.13;;;2.30;;
7957;SDS011;4024;52.172;5.378;2023-02-28T11:14:19;3.00;;;2.30;;
7957;SDS011;4024;52.172;5.378;2023-02-28T11:16:47;4.93;;;2.43;;
7957;SDS011;4024;52.172;5.378;2023-02-28T11:19:19;3.70;;;2.43;;
7957;SDS011;4024;52.172;5.378;2023-02-28T11:21:53;3.17;;;2.40;;
7957;SDS011;4024;52.172;5.378;2023-02-28T11:24:31;3.10;;;2.53;;
7957;SDS011;4024;52.172;5.378;2023-02-28T11:27:02;5.13;;;2.27;;
7957;SDS011;4024;52.172;5.378;2023-02-28T11:29:29;2.63;;;2.10;;
7957;SDS011;4024;52.172;5.378;2023-02-28T11:34:34;3.87;;;2.57;;
7957;SDS011;4024;52.172;5.378;2023-02-28T11:37:02;4.97;;;2.20;;
7957;SDS011;4024;52.172;5.378;2023-02-28T11:39:32;3.60;;;2.57;;
7957;SDS011;4024;52.172;5.378;2023-02-28T11:42:07;2.60;;;2.10;;
7957;SDS011;4024;52.172;5.378;2023-02-28T11:45:15;3.70;;;2.47;;
7957;SDS011;4024;52.172;5.378;2023-02-28T11:47:48;3.47;;;2.43;;
7957;SDS011;4024;52.172;5.378;2023-02-28T11:56:06;2.73;;;2.43;;
7957;SDS011;4024;52.172;5.378;2023-02-28T11:59:38;2.87;;;2.23;;
7957;SDS011;4024;52.172;5.378;2023-02-28T12:02:04;2.60;;;2.40;;
7957;SDS011;4024;52.172;5.378;2023-02-28T12:04:42;2.50;;;2.30;;
7957;SDS011;4024;52.172;5.378;2023-02-28T12:12:44;3.03;;;2.60;;
7957;SDS011;4024;52.172;5.378;2023-02-28T12:26:46;2.50;;;2.30;;
7957;SDS011;4024;52.172;5.378;2023-02-28T12:29:19;4.03;;;2.30;;
7957;SDS011;4024;52.172;5.378;2023-02-28T12:34:48;2.50;;;2.30;;
7957;SDS011;4024;52.172;5.378;2023-02-28T12:37:17;3.20;;;2.47;;
7957;SDS011;4024;52.172;5.378;2023-02-28T12:39:51;2.60;;;2.40;;
7957;SDS011;4024;52.172;5.378;2023-02-28T12:42:27;2.57;;;2.30;;
7957;SDS011;4024;52.172;5.378;2023-02-28T12:45:00;2.93;;;2.30;;
7957;SDS011;4024;52.172;5.378;2023-02-28T12:47:29;3.07;;;2.30;;
7957;SDS011;4024;52.172;5.378;2023-02-28T12:55:21;2.73;;;2.40;;
7957;SDS011;4024;52.172;5.378;2023-02-28T12:58:29;2.93;;;2.40;;
7957;SDS011;4024;52.172;5.378;2023-02-28T13:09:10;2.47;;;2.27;;
7957;SDS011;4024;52.172;5.378;2023-02-28T13:11:47;2.97;;;2.30;;
7957;SDS011;4024;52.172;5.378;2023-02-28T13:14:24;2.83;;;2.53;;
7957;SDS011;4024;52.172;5.378;2023-02-28T13:19:34;2.70;;;2.50;;
7957;SDS011;4024;52.172;5.378;2023-02-28T13:22:03;3.33;;;2.60;;
7957;SDS011;4024;52.172;5.378;2023-02-28T13:29:34;3.17;;;2.50;;
7957;SDS011;4024;52.172;5.378;2023-02-28T13:34:30;4.17;;;2.70;;
7957;SDS011;4024;52.172;5.378;2023-02-28T13:39:47;2.57;;;2.37;;
7957;SDS011;4024;52.172;5.378;2023-02-28T13:45:28;3.07;;;2.73;;
7957;SDS011;4024;52.172;5.378;2023-02-28T13:52:54;3.60;;;2.80;;
7957;SDS011;4024;52.172;5.378;2023-02-28T14:07:06;3.20;;;2.70;;
7957;SDS011;4024;52.172;5.378;2023-02-28T14:09:35;2.77;;;2.50;;
7957;SDS011;4024;52.172;5.378;2023-02-28T14:17:57;3.17;;;2.70;;
7957;SDS011;4024;52.172;5.378;2023-02-28T14:20:26;3.27;;;2.97;;
7957;SDS011;4024;52.172;5.378;2023-02-28T14:31:39;4.47;;;2.80;;
7957;SDS011;4024;52.172;5.378;2023-02-28T14:37:04;3.20;;;2.40;;
7957;SDS011;4024;52.172;5.378;2023-02-28T14:39:33;3.00;;;2.70;;
7957;SDS011;4024;52.172;5.378;2023-02-28T14:41:59;3.17;;;2.43;;
7957;SDS011;4024;52.172;5.378;2023-02-28T14:44:29;2.60;;;2.33;;
7957;SDS011;4024;52.172;5.378;2023-02-28T14:46:57;3.60;;;2.50;;
7957;SDS011;4024;52.172;5.378;2023-02-28T14:49:34;3.57;;;2.70;;
7957;SDS011;4024;52.172;5.378;2023-02-28T14:52:07;4.57;;;2.60;;
7957;SDS011;4024;52.172;5.378;2023-02-28T14:54:37;5.10;;;2.30;;
7957;SDS011;4024;52.172;5.378;2023-02-28T14:57:03;2.97;;;2.67;;
7957;SDS011;4024;52.172;5.378;2023-02-28T14:59:30;5.13;;;2.83;;
7957;SDS011;4024;52.172;5.378;2023-02-28T15:04:56;2.90;;;2.40;;
7957;SDS011;4024;52.172;5.378;2023-02-28T15:07:23;3.67;;;2.40;;
7957;SDS011;4024;52.172;5.378;2023-02-28T15:10:06;3.63;;;2.30;;
7957;SDS011;4024;52.172;5.378;2023-02-28T15:12:32;2.53;;;2.33;;
7957;SDS011;4024;52.172;5.378;2023-02-28T15:14:57;2.50;;;2.30;;
7957;SDS011;4024;52.172;5.378;2023-02-28T15:17:23;2.90;;;2.30;;
7957;SDS011;4024;52.172;5.378;2023-02-28T15:19:50;4.43;;;2.40;;
7957;SDS011;4024;52.172;5.378;2023-02-28T15:22:19;3.23;;;2.40;;
7957;SDS011;4024;52.172;5.378;2023-02-28T15:24:53;5.40;;;2.60;;
7957;SDS011;4024;52.172;5.378;2023-02-28T15:27:22;2.60;;;2.40;;
7957;SDS011;4024;52.172;5.378;2023-02-28T15:29:57;4.53;;;2.60;;
7957;SDS011;4024;52.172;5.378;2023-02-28T15:34:54;3.37;;;2.70;;
7957;SDS011;4024;52.172;5.378;2023-02-28T15:37:37;4.40;;;2.70;;
7957;SDS011;4024;52.172;5.378;2023-02-28T15:42:41;4.77;;;3.23;;
7957;SDS011;4024;52.172;5.378;2023-02-28T15:45:27;3.40;;;3.10;;
7957;SDS011;4024;52.172;5.378;2023-02-28T15:48:02;3.00;;;2.70;;
7957;SDS011;4024;52.172;5.378;2023-02-28T15:50:28;2.93;;;2.63;;
7957;SDS011;4024;52.172;5.378;2023-02-28T15:52:54;2.83;;;2.53;;
7957;SDS011;4024;52.172;5.378;2023-02-28T15:55:24;2.90;;;2.60;;
7957;SDS011;4024;52.172;5.378;2023-02-28T15:57:53;3.10;;;2.63;;
7957;SDS011;4024;52.172;5.378;2023-02-28T16:00:24;2.87;;;2.57;;
7957;SDS011;4024;52.172;5.378;2023-02-28T16:02:50;2.80;;;2.60;;
7957;SDS011;4024;52.172;5.378;2023-02-28T16:05:29;4.43;;;2.60;;
7957;SDS011;4024;52.172;5.378;2023-02-28T16:08:15;3.20;;;2.90;;
7957;SDS011;4024;52.172;5.378;2023-02-28T16:10:41;3.03;;;2.73;;
7957;SDS011;4024;52.172;5.378;2023-02-28T16:13:08;3.07;;;2.60;;
7957;SDS011;4024;52.172;5.378;2023-02-28T16:15:37;3.00;;;2.57;;
7957;SDS011;4024;52.172;5.378;2023-02-28T16:18:07;3.03;;;2.73;;
7957;SDS011;4024;52.172;5.378;2023-02-28T16:20:38;4.53;;;2.93;;
7957;SDS011;4024;52.172;5.378;2023-02-28T16:23:04;5.67;;;2.87;;
7957;SDS011;4024;52.172;5.378;2023-02-28T16:25:37;3.83;;;2.67;;
7957;SDS011;4024;52.172;5.378;2023-02-28T16:28:06;3.83;;;2.80;;
7957;SDS011;4024;52.172;5.378;2023-02-28T16:30:42;3.60;;;2.67;;
7957;SDS011;4024;52.172;5.378;2023-02-28T16:33:08;4.30;;;2.70;;
7957;SDS011;4024;52.172;5.378;2023-02-28T16:35:34;3.20;;;2.77;;
7957;SDS011;4024;52.172;5.378;2023-02-28T16:38:00;3.20;;;2.50;;
7957;SDS011;4024;52.172;5.378;2023-02-28T16:40:26;4.00;;;2.70;;
7957;SDS011;4024;52.172;5.378;2023-02-28T16:42:54;2.77;;;2.57;;
7957;SDS011;4024;52.172;5.378;2023-02-28T16:45:25;3.13;;;2.83;;
7957;SDS011;4024;52.172;5.378;2023-02-28T16:47:52;3.90;;;2.70;;
7957;SDS011;4024;52.172;5.378;2023-02-28T16:52:45;4.70;;;2.80;;
7957;SDS011;4024;52.172;5.378;2023-02-28T16:55:12;5.20;;;2.43;;
7957;SDS011;4024;52.172;5.378;2023-02-28T16:57:38;7.00;;;2.83;;
7957;SDS011;4024;52.172;5.378;2023-02-28T17:00:05;2.97;;;2.70;;
7957;SDS011;4024;52.172;5.378;2023-02-28T17:02:33;3.73;;;3.00;;
7957;SDS011;4024;52.172;5.378;2023-02-28T17:04:59;4.10;;;3.27;;
7957;SDS011;4024;52.172;5.378;2023-02-28T17:07:24;4.40;;;3.10;;
7957;SDS011;4024;52.172;5.378;2023-02-28T17:09:51;3.67;;;3.10;;
7957;SDS011;4024;52.172;5.378;2023-02-28T17:12:16;3.50;;;3.13;;
7957;SDS011;4024;52.172;5.378;2023-02-28T17:14:42;3.87;;;3.47;;
7957;SDS011;4024;52.172;5.378;2023-02-28T17:17:09;4.60;;;3.40;;
7957;SDS011;4024;52.172;5.378;2023-02-28T17:19:41;4.73;;;3.10;;
7957;SDS011;4024;52.172;5.378;2023-02-28T17:22:09;3.97;;;3.27;;
7957;SDS011;4024;52.172;5.378;2023-02-28T17:24:35;4.00;;;3.53;;
7957;SDS011;4024;52.172;5.378;2023-02-28T17:27:00;3.47;;;3.10;;
7957;SDS011;4024;52.172;5.378;2023-02-28T17:29:27;4.20;;;3.30;;
7957;SDS011;4024;52.172;5.378;2023-02-28T17:31:53;4.33;;;3.53;;
7957;SDS011;4024;52.172;5.378;2023-02-28T17:34:18;4.53;;;3.43;;
7957;SDS011;4024;52.172;5.378;2023-02-28T17:36:45;4.20;;;3.80;;
7957;SDS011;4024;52.172;5.378;2023-02-28T17:39:12;4.70;;;3.53;;
7957;SDS011;4024;52.172;5.378;2023-02-28T17:41:49;5.30;;;4.10;;
7957;SDS011;4024;52.172;5.378;2023-02-28T17:44:21;5.83;;;3.80;;
7957;SDS011;4024;52.172;5.378;2023-02-28T17:46:47;5.87;;;4.07;;
7957;SDS011;4024;52.172;5.378;2023-02-28T17:49:14;7.93;;;4.10;;
7957;SDS011;4024;52.172;5.378;2023-02-28T17:51:40;7.03;;;5.00;;
7957;SDS011;4024;52.172;5.378;2023-02-28T17:54:06;5.73;;;4.43;;
7957;SDS011;4024;52.172;5.378;2023-02-28T17:56:31;6.83;;;4.37;;
7957;SDS011;4024;52.172;5.378;2023-02-28T17:58:57;5.33;;;4.13;;
7957;SDS011;4024;52.172;5.378;2023-02-28T18:01:23;6.20;;;4.37;;
7957;SDS011;4024;52.172;5.378;2023-02-28T18:03:53;5.10;;;4.27;;
7957;SDS011;4024;52.172;5.378;2023-02-28T18:06:21;5.03;;;4.17;;
7957;SDS011;4024;52.172;5.378;2023-02-28T18:08:49;7.93;;;4.60;;
7957;SDS011;4024;52.172;5.378;2023-02-28T18:11:16;5.47;;;4.00;;
7957;SDS011;4024;52.172;5.378;2023-02-28T18:13:49;5.20;;;3.90;;
7957;SDS011;4024;52.172;5.378;2023-02-28T18:16:17;6.63;;;4.63;;
7957;SDS011;4024;52.172;5.378;2023-02-28T18:18:44;4.87;;;4.37;;
7957;SDS011;4024;52.172;5.378;2023-02-28T18:21:12;7.00;;;4.70;;